Time;durP1;ratioP1;P1;durP2;ratioP2;P2;SDS_P1;SDS_P2;PMS_P1;PMS_P2;Temp;Humidity;BMP_temperature;BMP_pressure;BME280_temperature;BME280_humidity;BME280_pressure;Samples;Min_cycle;Max_cycle;Signal;HPM_P1;HPM_P2
2022/09/27 00:02:13;;;;;;;4.18;0.50;;;10.70;99.90;;;;;;4971948;28;20526;-71
2022/09/27 00:04:38;;;;;;;1.85;0.30;;;10.70;99.90;;;;;;4977823;28;20043;-72
2022/09/27 00:07:04;;;;;;;1.52;0.30;;;10.70;99.90;;;;;;4972513;28;20127;-72
2022/09/27 00:09:30;;;;;;;3.08;0.20;;;10.70;99.90;;;;;;4975406;28;20042;-72
2022/09/27 00:11:56;;;;;;;0.60;0.20;;;10.70;99.90;;;;;;4972053;28;20038;-72
2022/09/27 00:14:21;;;;;;;5.82;0.68;;;10.70;99.90;;;;;;4969548;28;20030;-72
2022/09/27 00:16:47;;;;;;;8.45;1.35;;;10.60;99.90;;;;;;4973678;28;20045;-72
2022/09/27 00:19:15;;;;;;;3.15;0.65;;;10.70;99.90;;;;;;4973421;28;20038;-72
2022/09/27 00:21:42;;;;;;;4.10;0.20;;;10.60;99.90;;;;;;4978070;28;20053;-71
2022/09/27 00:24:15;;;;;;;3.70;0.35;;;10.60;99.90;;;;;;4975469;28;20054;-72
2022/09/27 00:26:41;;;;;;;3.55;0.93;;;10.60;99.90;;;;;;4970815;28;20395;-72
2022/09/27 00:29:07;;;;;;;3.35;0.20;;;10.50;99.90;;;;;;4979193;28;20050;-72
2022/09/27 00:31:33;;;;;;;8.02;0.45;;;10.50;99.90;;;;;;4977694;28;20042;-71
2022/09/27 00:34:01;;;;;;;2.08;0.82;;;10.50;99.90;;;;;;4976456;28;20570;-72
2022/09/27 00:36:28;;;;;;;0.32;0.10;;;10.40;99.90;;;;;;4979690;28;20251;-71
2022/09/27 00:38:54;;;;;;;3.60;0.40;;;10.40;99.90;;;;;;4970854;28;20121;-72
2022/09/27 00:41:27;;;;;;;1.05;0.15;;;10.40;99.90;;;;;;4973245;28;20057;-71
2022/09/27 00:44:03;;;;;;;3.13;0.20;;;10.30;99.90;;;;;;4974647;28;20034;-72
2022/09/27 00:46:40;;;;;;;3.00;0.25;;;10.30;99.90;;;;;;4976262;28;20039;-73
2022/09/27 00:49:26;;;;;;;3.28;0.20;;;10.30;99.90;;;;;;4968818;28;20038;-71
2022/09/27 00:51:58;;;;;;;3.63;0.75;;;10.30;99.90;;;;;;4968656;28;20035;-71
2022/09/27 00:54:27;;;;;;;1.00;0.10;;;10.20;99.90;;;;;;4977200;28;20114;-71
2022/09/27 00:56:54;;;;;;;3.97;0.85;;;10.20;99.90;;;;;;4974979;28;20061;-73
2022/09/27 00:59:25;;;;;;;1.15;0.25;;;10.20;99.90;;;;;;4974307;28;20035;-72
2022/09/27 01:01:51;;;;;;;3.58;0.17;;;10.20;99.90;;;;;;4976118;28;20098;-72
2022/09/27 01:04:23;;;;;;;7.25;1.48;;;10.20;99.90;;;;;;4973937;28;20738;-71
2022/09/27 01:06:49;;;;;;;3.67;0.35;;;10.20;99.90;;;;;;4974898;28;20031;-74
2022/09/27 01:09:15;;;;;;;2.83;0.15;;;10.20;99.90;;;;;;4974394;28;20073;-71
2022/09/27 01:12:01;;;;;;;3.38;0.73;;;10.30;99.90;;;;;;4977861;28;20035;-72
2022/09/27 01:14:35;;;;;;;9.13;0.68;;;10.40;99.90;;;;;;4975068;28;20037;-71
2022/09/27 01:17:31;;;;;;;2.90;0.20;;;10.30;99.90;;;;;;4974847;28;20438;-72
2022/09/27 01:20:20;;;;;;;4.15;0.70;;;10.40;99.90;;;;;;4972377;28;20505;-72
2022/09/27 01:23:30;;;;;;;4.18;0.30;;;10.30;99.90;;;;;;4976244;28;20046;-72
2022/09/27 01:26:18;;;;;;;2.87;0.13;;;10.20;99.90;;;;;;4967333;28;20049;-72
2022/09/27 01:29:05;;;;;;;4.47;0.95;;;10.10;99.90;;;;;;4976599;28;20358;-71
2022/09/27 01:31:54;;;;;;;3.47;0.47;;;10.10;99.90;;;;;;4973932;28;20112;-72
2022/09/27 01:34:41;;;;;;;5.03;0.73;;;10.00;99.90;;;;;;4973144;28;20030;-72
2022/09/27 01:37:20;;;;;;;1.55;0.30;;;9.90;99.90;;;;;;4971466;28;20046;-72
2022/09/27 01:40:06;;;;;;;5.65;0.30;;;9.90;99.90;;;;;;4971631;28;20452;-76
2022/09/27 01:42:56;;;;;;;7.45;0.40;;;9.80;99.90;;;;;;4971478;28;20042;-71
2022/09/27 01:45:31;;;;;;;4.95;0.88;;;9.80;99.90;;;;;;4971039;28;20047;-71
2022/09/27 01:48:06;;;;;;;4.28;0.25;;;9.70;99.90;;;;;;4973118;28;20041;-72
2022/09/27 01:50:34;;;;;;;5.35;0.50;;;9.70;99.90;;;;;;4973424;28;20112;-72
2022/09/27 01:53:13;;;;;;;2.72;0.50;;;9.60;99.90;;;;;;4966283;28;20027;-71
2022/09/27 01:55:39;;;;;;;2.72;0.22;;;9.60;99.90;;;;;;4973412;28;20053;-72
2022/09/27 01:58:30;;;;;;;8.15;0.50;;;9.50;99.90;;;;;;4972012;28;20035;-72
2022/09/27 02:00:56;;;;;;;;;;;9.50;99.90;;;;;;4970547;28;20518;-72
2022/09/27 02:03:29;;;;;;;4.43;0.32;;;9.50;99.90;;;;;;4967552;28;19918;-72
2022/09/27 02:06:07;;;;;;;4.32;0.30;;;9.40;99.90;;;;;;4970128;28;20034;-72
2022/09/27 02:08:35;;;;;;;10.05;0.77;;;9.40;99.90;;;;;;4971108;28;20038;-71
2022/09/27 02:11:07;;;;;;;2.63;0.30;;;9.50;99.90;;;;;;4973043;28;20051;-73
2022/09/27 02:13:46;;;;;;;5.07;0.75;;;9.40;99.90;;;;;;4973130;28;20400;-72
2022/09/27 02:16:38;;;;;;;3.35;0.32;;;9.50;99.90;;;;;;4971069;28;20039;-72
2022/09/27 02:19:09;;;;;;;7.07;0.65;;;9.50;99.90;;;;;;4968315;28;20093;-73
2022/09/27 02:22:04;;;;;;;9.43;1.08;;;9.60;99.90;;;;;;4973081;28;20491;-71
2022/09/27 02:24:58;;;;;;;8.52;0.50;;;9.70;99.90;;;;;;4963271;28;20195;-72
2022/09/27 02:27:30;;;;;;;2.38;0.75;;;9.60;99.90;;;;;;4975282;28;20126;-71
2022/09/27 02:30:10;;;;;;;3.60;0.40;;;9.70;99.90;;;;;;4971177;28;20027;-71
2022/09/27 02:32:36;;;;;;;1.25;0.20;;;9.70;99.90;;;;;;4969123;28;20077;-71
2022/09/27 02:35:12;;;;;;;8.73;0.43;;;9.60;99.90;;;;;;4974711;28;20042;-72
2022/09/27 02:37:38;;;;;;;6.25;0.80;;;9.60;99.90;;;;;;4973398;28;20042;-71
2022/09/27 02:40:05;;;;;;;4.63;0.60;;;9.60;99.90;;;;;;4975496;28;20570;-72
2022/09/27 02:42:31;;;;;;;6.22;0.95;;;9.50;99.90;;;;;;4979800;28;20042;-72
2022/09/27 02:44:57;;;;;;;5.85;0.90;;;9.40;99.90;;;;;;4973663;28;20031;-73
2022/09/27 02:48:03;;;;;;;7.07;0.88;;;9.40;99.90;;;;;;4972615;28;20042;-71
2022/09/27 02:51:09;;;;;;;4.68;0.60;;;9.40;99.90;;;;;;4951459;28;20479;-71
2022/09/27 02:54:13;;;;;;;7.50;0.68;;;9.30;99.90;;;;;;4917344;29;20038;-71
2022/09/27 02:56:46;;;;;;;3.42;0.45;;;9.30;99.90;;;;;;4971949;28;20058;-71
2022/09/27 02:59:30;;;;;;;2.95;0.40;;;9.30;99.90;;;;;;4975824;28;20031;-73
2022/09/27 03:02:18;;;;;;;1.90;0.40;;;9.40;99.90;;;;;;4973660;28;20063;-72
2022/09/27 03:04:54;;;;;;;8.48;1.02;;;9.40;99.90;;;;;;4976569;28;20414;-72
2022/09/27 03:07:21;;;;;;;4.22;1.10;;;9.40;99.90;;;;;;4971653;28;20039;-73
2022/09/27 03:09:49;;;;;;;10.73;1.15;;;9.40;99.90;;;;;;4972296;28;20101;-71
2022/09/27 03:12:21;;;;;;;7.68;0.70;;;9.50;99.90;;;;;;4979345;28;20034;-71
2022/09/27 03:14:48;;;;;;;5.15;1.38;;;9.50;99.90;;;;;;4973586;28;20027;-72
2022/09/27 03:17:14;;;;;;;5.72;0.60;;;9.60;99.90;;;;;;4972842;28;20047;-71
2022/09/27 03:19:39;;;;;;;2.78;0.52;;;9.60;99.90;;;;;;4977873;28;20046;-73
2022/09/27 03:22:05;;;;;;;7.90;1.00;;;9.60;99.90;;;;;;4977402;28;20090;-71
2022/09/27 03:24:31;;;;;;;3.15;0.55;;;9.60;99.90;;;;;;4978037;28;20034;-72
2022/09/27 03:26:56;;;;;;;7.93;0.90;;;9.60;99.90;;;;;;4978339;28;20376;-71
2022/09/27 03:29:22;;;;;;;8.35;1.20;;;9.50;99.90;;;;;;4977429;28;20042;-73
2022/09/27 03:31:47;;;;;;;8.20;0.40;;;9.50;99.90;;;;;;4980789;28;20438;-72
2022/09/27 03:34:13;;;;;;;3.53;0.82;;;9.40;99.90;;;;;;4976991;28;20059;-71
2022/09/27 03:36:39;;;;;;;6.47;0.60;;;9.40;99.90;;;;;;4976246;28;20034;-71
2022/09/27 03:39:05;;;;;;;3.90;0.30;;;9.30;99.90;;;;;;4973086;28;20499;-71
2022/09/27 03:41:31;;;;;;;5.18;0.90;;;9.20;99.90;;;;;;4975275;28;20121;-71
2022/09/27 03:43:58;;;;;;;8.80;0.60;;;9.20;99.90;;;;;;4981128;28;20090;-73
2022/09/27 03:46:24;;;;;;;4.75;0.65;;;9.10;99.90;;;;;;4975736;28;20086;-72
2022/09/27 03:48:49;;;;;;;5.22;0.40;;;9.10;99.90;;;;;;4976088;28;20043;-72
2022/09/27 03:51:15;;;;;;;5.38;0.75;;;9.10;99.90;;;;;;4972138;28;20430;-72
2022/09/27 03:53:41;;;;;;;2.83;0.32;;;9.10;99.90;;;;;;4973364;28;20093;-71
2022/09/27 03:56:07;;;;;;;2.75;0.65;;;9.10;99.90;;;;;;4975195;28;20151;-71
2022/09/27 03:58:33;;;;;;;3.70;0.40;;;9.00;99.90;;;;;;4979842;28;20499;-72
2022/09/27 04:00:58;;;;;;;10.20;0.68;;;9.00;99.90;;;;;;4975862;28;20513;-75
2022/09/27 04:03:25;;;;;;;7.25;1.15;;;9.00;99.90;;;;;;4976840;28;20066;-72
2022/09/27 04:05:52;;;;;;;3.42;0.80;;;9.10;99.90;;;;;;4976181;28;20063;-71
2022/09/27 04:08:18;;;;;;;8.90;1.10;;;9.10;99.90;;;;;;4974306;28;20038;-72
2022/09/27 04:10:44;;;;;;;2.85;0.55;;;9.20;99.90;;;;;;4974187;28;20133;-71
2022/09/27 04:13:09;;;;;;;4.35;0.40;;;9.20;99.90;;;;;;4970185;28;20081;-72
2022/09/27 04:15:38;;;;;;;3.28;1.10;;;9.20;99.90;;;;;;4978324;28;20034;-71
2022/09/27 04:18:04;;;;;;;9.45;1.13;;;9.30;99.90;;;;;;4970274;28;20047;-71
2022/09/27 04:20:30;;;;;;;5.82;0.65;;;9.30;99.90;;;;;;4978737;28;20034;-72
2022/09/27 04:22:56;;;;;;;8.75;0.43;;;9.30;99.90;;;;;;4976877;28;20049;-70
2022/09/27 04:25:21;;;;;;;2.65;0.20;;;9.20;99.90;;;;;;4973136;28;20093;-72
2022/09/27 04:27:47;;;;;;;6.55;0.30;;;9.30;99.90;;;;;;4977155;28;20037;-72
2022/09/27 04:30:14;;;;;;;3.75;0.20;;;9.20;99.90;;;;;;4977761;28;20117;-72
2022/09/27 04:32:43;;;;;;;2.08;0.10;;;9.20;99.90;;;;;;4975131;28;20039;-72
2022/09/27 04:37:55;;;;;;;2.88;0.68;;;9.20;99.90;;;;;;4973847;28;20038;-71
2022/09/27 04:40:21;;;;;;;2.38;0.30;;;9.20;99.90;;;;;;4973205;28;20050;-71
2022/09/27 04:42:48;;;;;;;2.72;0.10;;;9.20;99.90;;;;;;4972525;28;20035;-72
2022/09/27 04:45:13;;;;;;;1.55;0.20;;;9.20;99.90;;;;;;4974883;28;20502;-71
2022/09/27 04:47:49;;;;;;;4.35;0.40;;;9.30;99.90;;;;;;4978299;28;20049;-72
2022/09/27 04:50:16;;;;;;;6.78;0.43;;;9.20;99.90;;;;;;4970544;28;20050;-71
2022/09/27 04:52:42;;;;;;;4.53;0.57;;;9.30;99.90;;;;;;4970079;28;20082;-73
2022/09/27 04:55:09;;;;;;;2.35;0.40;;;9.30;99.90;;;;;;4975426;28;20038;-70
2022/09/27 04:57:35;;;;;;;7.47;0.30;;;9.30;99.90;;;;;;4971996;28;20061;-75
2022/09/27 05:00:01;;;;;;;6.82;0.25;;;9.30;99.90;;;;;;4973860;28;20098;-72
2022/09/27 05:02:28;;;;;;;3.63;0.68;;;9.30;99.90;;;;;;4972979;28;20410;-72
2022/09/27 05:04:58;;;;;;;4.25;0.85;;;9.30;99.90;;;;;;4978824;28;20047;-71
2022/09/27 05:07:28;;;;;;;2.60;0.30;;;9.30;99.90;;;;;;4974744;28;20052;-70
2022/09/27 05:09:54;;;;;;;6.00;0.40;;;9.30;99.90;;;;;;4971467;28;20392;-72
2022/09/27 05:12:20;;;;;;;1.98;0.60;;;9.30;99.90;;;;;;4980811;28;20290;-73
2022/09/27 05:14:46;;;;;;;13.35;1.48;;;9.40;99.90;;;;;;4975024;28;20183;-72
2022/09/27 05:17:12;;;;;;;8.40;0.50;;;9.40;99.90;;;;;;4971400;28;20503;-71
2022/09/27 05:19:38;;;;;;;6.75;0.20;;;9.40;99.90;;;;;;4976571;28;20490;-70
2022/09/27 05:22:05;;;;;;;7.38;1.55;;;9.40;99.90;;;;;;4970991;28;20127;-72
2022/09/27 05:24:32;;;;;;;2.53;0.32;;;9.40;99.90;;;;;;4976448;28;20497;-73
2022/09/27 05:26:58;;;;;;;4.40;0.40;;;9.40;99.90;;;;;;4974167;28;20479;-72
2022/09/27 05:29:23;;;;;;;3.45;0.30;;;9.40;99.90;;;;;;4973387;28;20034;-73
2022/09/27 05:31:49;;;;;;;1.45;0.20;;;9.30;99.90;;;;;;4969733;28;20034;-72
2022/09/27 05:34:16;;;;;;;5.63;0.88;;;9.30;99.90;;;;;;4971678;28;20042;-72
2022/09/27 05:36:42;;;;;;;3.67;0.60;;;9.40;99.90;;;;;;4981425;28;20062;-73
2022/09/27 05:39:08;;;;;;;7.47;0.45;;;9.30;99.90;;;;;;4970456;28;20061;-72
2022/09/27 05:41:33;;;;;;;5.75;0.35;;;9.40;99.90;;;;;;4975405;28;20027;-73
2022/09/27 05:44:00;;;;;;;1.33;0.13;;;9.40;99.90;;;;;;4972953;28;20019;-73
2022/09/27 05:46:25;;;;;;;3.78;0.38;;;9.40;99.90;;;;;;4976023;28;20047;-72
2022/09/27 05:48:51;;;;;;;2.88;0.38;;;9.40;99.90;;;;;;4971062;28;20027;-71
2022/09/27 05:51:18;;;;;;;4.97;0.30;;;9.40;99.90;;;;;;4975730;28;20495;-74
2022/09/27 05:53:43;;;;;;;2.45;0.28;;;9.40;99.90;;;;;;4968690;28;20058;-71
2022/09/27 05:56:09;;;;;;;2.33;0.30;;;9.50;99.90;;;;;;4974726;28;20407;-72
2022/09/27 05:58:34;;;;;;;4.25;0.22;;;9.50;99.90;;;;;;4972334;28;20039;-72
2022/09/27 06:01:00;;;;;;;1.15;0.30;;;9.50;99.90;;;;;;4972663;28;20487;-72
2022/09/27 06:03:26;;;;;;;1.30;0.20;;;9.50;99.90;;;;;;4975022;28;20043;-72
2022/09/27 06:05:51;;;;;;;2.80;0.70;;;9.60;99.90;;;;;;4975620;28;20038;-71
2022/09/27 06:08:19;;;;;;;1.98;0.50;;;9.60;99.90;;;;;;4969649;28;20031;-71
2022/09/27 06:10:46;;;;;;;3.25;0.40;;;9.60;99.90;;;;;;4967118;28;20036;-71
2022/09/27 06:13:13;;;;;;;4.85;0.50;;;9.60;99.90;;;;;;4972702;28;20031;-71
2022/09/27 06:15:41;;;;;;;5.18;0.70;;;9.60;99.90;;;;;;4984941;28;20045;-71
2022/09/27 06:18:12;;;;;;;4.30;1.00;;;9.60;99.90;;;;;;4980447;28;20038;-72
2022/09/27 06:20:40;;;;;;;2.78;0.22;;;9.60;99.90;;;;;;4981189;28;20058;-71
2022/09/27 06:23:11;;;;;;;6.35;0.38;;;9.70;99.90;;;;;;4975604;28;20093;-72
2022/09/27 06:25:38;;;;;;;4.93;0.28;;;9.70;99.90;;;;;;4975091;28;20054;-72
2022/09/27 06:28:04;;;;;;;1.67;0.38;;;9.70;99.90;;;;;;4979653;28;20413;-71
2022/09/27 06:30:30;;;;;;;5.90;0.30;;;9.70;99.90;;;;;;4987877;28;20042;-72
2022/09/27 06:33:00;;;;;;;4.65;0.32;;;9.70;99.90;;;;;;4992595;28;20053;-70
2022/09/27 06:35:27;;;;;;;2.53;0.30;;;9.80;99.90;;;;;;4992190;28;20034;-70
2022/09/27 06:37:53;;;;;;;3.67;0.45;;;9.80;99.90;;;;;;4992682;28;20034;-70
2022/09/27 06:40:19;;;;;;;1.38;0.15;;;9.80;99.90;;;;;;4985567;28;20042;-73
2022/09/27 06:42:46;;;;;;;2.22;0.20;;;9.80;99.90;;;;;;4984911;28;20092;-72
2022/09/27 06:45:11;;;;;;;1.98;0.30;;;9.90;99.90;;;;;;4979911;28;20031;-71
2022/09/27 06:47:37;;;;;;;1.75;0.30;;;10.00;99.90;;;;;;4984635;28;20045;-71
2022/09/27 06:50:05;;;;;;;3.22;0.50;;;10.00;99.90;;;;;;4986385;28;20124;-72
2022/09/27 06:52:32;;;;;;;4.13;0.40;;;10.10;99.90;;;;;;4986201;28;20624;-72
2022/09/27 06:54:58;;;;;;;2.90;0.20;;;10.10;99.90;;;;;;4973949;28;20034;-72
2022/09/27 07:00:28;;;;;;;3.83;0.47;;;10.20;99.90;;;;;;4953160;28;20058;-72
2022/09/27 07:02:59;;;;;;;5.32;0.60;;;10.30;99.90;;;;;;4953741;28;20058;-70
2022/09/27 07:05:25;;;;;;;4.65;0.50;;;10.40;99.90;;;;;;4953082;28;20039;-71
2022/09/27 07:07:56;;;;;;;4.15;0.47;;;10.60;99.90;;;;;;4968187;28;20031;-71
2022/09/27 07:10:25;;;;;;;;;;;10.70;99.90;;;;;;4977299;28;20053;-70
2022/09/27 07:12:51;;;;;;;3.97;0.40;;;10.70;99.90;;;;;;4979225;28;19914;-71
2022/09/27 07:15:20;;;;;;;4.43;0.20;;;10.80;99.90;;;;;;4968821;28;20034;-70
2022/09/27 07:17:46;;;;;;;3.22;0.20;;;10.80;99.90;;;;;;4972014;28;20031;-71
2022/09/27 07:20:12;;;;;;;5.65;0.40;;;10.90;99.90;;;;;;4971306;28;20039;-71
2022/09/27 07:22:44;;;;;;;3.13;0.30;;;11.00;99.90;;;;;;4971274;28;20510;-72
2022/09/27 07:25:10;;;;;;;2.85;0.35;;;10.90;99.90;;;;;;4969997;28;20513;-70
2022/09/27 07:27:36;;;;;;;2.97;0.30;;;10.90;99.90;;;;;;4977390;28;20038;-72
2022/09/27 07:30:06;;;;;;;1.42;0.35;;;10.80;99.90;;;;;;4969802;28;20090;-72
2022/09/27 07:32:34;;;;;;;2.65;0.30;;;10.80;99.90;;;;;;4972340;28;20039;-72
2022/09/27 07:35:00;;;;;;;2.00;0.30;;;10.70;99.90;;;;;;4974788;28;20121;-74
2022/09/27 07:37:25;;;;;;;3.28;0.40;;;10.60;99.90;;;;;;4971217;28;20182;-73
2022/09/27 07:39:51;;;;;;;2.30;0.60;;;10.60;99.90;;;;;;4972864;28;20082;-71
2022/09/27 07:42:16;;;;;;;2.90;0.50;;;10.60;99.90;;;;;;4979501;28;20042;-72
2022/09/27 07:44:42;;;;;;;3.00;0.63;;;10.60;99.90;;;;;;4979448;28;20038;-72
2022/09/27 07:47:09;;;;;;;2.42;0.30;;;10.60;99.90;;;;;;4980061;28;20038;-72
2022/09/27 07:49:35;;;;;;;2.58;0.20;;;10.60;99.90;;;;;;4978614;28;20031;-72
2022/09/27 07:52:01;;;;;;;3.70;0.55;;;10.60;99.90;;;;;;4978683;28;20034;-72
2022/09/27 07:54:26;;;;;;;4.05;0.30;;;10.50;99.90;;;;;;4983134;28;20042;-72
2022/09/27 07:56:54;;;;;;;1.88;0.38;;;10.50;99.90;;;;;;4982116;28;20563;-71
2022/09/27 07:59:19;;;;;;;2.78;0.40;;;10.50;99.90;;;;;;4975376;28;20050;-72
2022/09/27 08:01:45;;;;;;;2.22;0.28;;;10.50;99.90;;;;;;4974499;28;20085;-72
2022/09/27 08:04:11;;;;;;;7.25;0.57;;;10.50;99.90;;;;;;4980100;28;20030;-71
2022/09/27 08:06:36;;;;;;;3.92;0.30;;;10.50;99.90;;;;;;4973735;28;20037;-71
2022/09/27 08:09:05;;;;;;;4.13;0.30;;;10.40;99.90;;;;;;4974557;28;20495;-71
2022/09/27 08:11:31;;;;;;;2.28;0.13;;;10.30;99.90;;;;;;4977122;28;20034;-70
2022/09/27 08:13:56;;;;;;;2.17;0.75;;;10.30;99.90;;;;;;4978064;28;20038;-71
2022/09/27 08:16:22;;;;;;;2.40;0.10;;;10.20;99.90;;;;;;4979885;28;20466;-71
2022/09/27 08:18:47;;;;;;;7.35;0.90;;;10.20;99.90;;;;;;4981300;28;20027;-72
2022/09/27 08:21:13;;;;;;;3.58;1.08;;;10.20;99.90;;;;;;4980433;28;20105;-72
2022/09/27 08:23:38;;;;;;;2.60;0.28;;;10.10;99.90;;;;;;4977321;28;20398;-72
2022/09/27 08:26:04;;;;;;;3.20;0.38;;;10.10;99.90;;;;;;4983334;28;20054;-71
2022/09/27 08:28:30;;;;;;;4.75;0.50;;;10.10;99.90;;;;;;4984798;28;20090;-71
2022/09/27 08:30:58;;;;;;;3.47;0.38;;;10.10;99.90;;;;;;4983805;28;20479;-72
2022/09/27 08:33:24;;;;;;;2.55;0.40;;;10.10;99.90;;;;;;4983942;28;20034;-71
2022/09/27 08:35:50;;;;;;;1.20;0.30;;;10.00;99.90;;;;;;4975921;28;20034;-71
2022/09/27 08:38:16;;;;;;;2.30;0.28;;;10.00;99.90;;;;;;4981163;28;20049;-72
2022/09/27 08:40:56;;;;;;;3.95;0.30;;;10.00;99.90;;;;;;4978149;28;20062;-71
2022/09/27 08:43:43;;;;;;;1.90;0.20;;;10.00;99.90;;;;;;4975785;28;20562;-71
2022/09/27 08:46:14;;;;;;;4.90;1.52;;;10.00;99.90;;;;;;4977489;28;20038;-70
2022/09/27 08:48:41;;;;;;;0.63;0.20;;;10.00;99.90;;;;;;4976118;28;20038;-73
2022/09/27 08:51:12;;;;;;;1.85;0.20;;;9.90;99.90;;;;;;4973729;28;20047;-71
2022/09/27 08:53:37;;;;;;;;;;;9.90;99.90;;;;;;4977981;28;20121;-71
2022/09/27 08:56:08;;;;;;;2.38;0.22;;;9.80;99.90;;;;;;4970410;28;19923;-72
2022/09/27 08:58:44;;;;;;;1.20;0.38;;;9.80;99.90;;;;;;4973273;28;20038;-69
2022/09/27 09:01:13;;;;;;;1.60;0.17;;;9.80;99.90;;;;;;4978753;28;20574;-71
2022/09/27 09:03:46;;;;;;;2.83;0.10;;;9.70;99.90;;;;;;4971650;28;20047;-72
2022/09/27 09:06:26;;;;;;;1.50;0.10;;;9.80;99.90;;;;;;4971619;28;20046;-72
2022/09/27 09:08:57;;;;;;;3.75;0.32;;;9.80;99.90;;;;;;4972781;28;20050;-71
2022/09/27 09:14:54;;;;;;;3.80;0.90;;;9.90;99.90;;;;;;4980336;28;20133;-72
2022/09/27 09:17:42;;;;;;;1.88;0.10;;;9.90;99.90;;;;;;4971629;28;20038;-70
2022/09/27 09:20:34;;;;;;;5.05;0.20;;;10.00;99.90;;;;;;4971713;28;20077;-72
2022/09/27 09:23:25;;;;;;;1.27;0.10;;;10.00;99.90;;;;;;4969277;28;20388;-72
2022/09/27 09:26:09;;;;;;;3.33;0.45;;;10.20;99.90;;;;;;4971880;28;20459;-71
2022/09/27 09:29:01;;;;;;;2.05;0.10;;;10.20;99.90;;;;;;4973801;28;20041;-71
2022/09/27 09:31:47;;;;;;;4.18;0.20;;;10.30;99.90;;;;;;4972077;28;20030;-72
2022/09/27 09:34:24;;;;;;;0.25;0.00;;;10.30;99.90;;;;;;4971943;28;20050;-72
2022/09/27 09:37:04;;;;;;;3.45;0.20;;;10.30;99.90;;;;;;4972768;28;20042;-72
2022/09/27 09:39:43;;;;;;;4.97;0.20;;;10.40;99.90;;;;;;4973847;28;20073;-71
2022/09/27 09:42:25;;;;;;;2.47;0.20;;;10.40;99.90;;;;;;4973315;28;20039;-72
2022/09/27 09:45:00;;;;;;;1.08;0.17;;;10.40;99.90;;;;;;4970292;28;20027;-71
2022/09/27 09:47:30;;;;;;;1.42;0.45;;;10.40;99.90;;;;;;4973876;28;20546;-72
2022/09/27 09:50:21;;;;;;;4.88;0.52;;;10.40;99.90;;;;;;4970412;28;20035;-71
2022/09/27 09:53:03;;;;;;;1.90;0.95;;;10.50;99.90;;;;;;4966649;28;20049;-72
2022/09/27 09:55:33;;;;;;;2.22;0.32;;;10.50;99.90;;;;;;4968866;28;20049;-71
2022/09/27 09:58:14;;;;;;;3.83;0.28;;;10.60;99.90;;;;;;4970612;28;20034;-72
2022/09/27 10:00:42;;;;;;;4.30;0.40;;;10.50;99.90;;;;;;4969640;28;20023;-71
2022/09/27 10:03:07;;;;;;;4.00;0.30;;;10.40;99.90;;;;;;4973476;28;20121;-72
2022/09/27 10:05:33;;;;;;;0.82;0.10;;;10.40;99.90;;;;;;4975791;28;20123;-71
2022/09/27 10:08:02;;;;;;;1.25;0.28;;;10.40;99.90;;;;;;4970766;28;20109;-73
2022/09/27 10:10:28;;;;;;;3.30;0.30;;;10.50;99.90;;;;;;4968744;28;20045;-71
2022/09/27 10:12:55;;;;;;;1.13;0.10;;;10.70;99.90;;;;;;4967667;28;20470;-71
2022/09/27 10:15:23;;;;;;;1.88;0.20;;;10.80;99.90;;;;;;4972971;28;20038;-72
2022/09/27 10:17:52;;;;;;;2.03;0.20;;;10.80;99.90;;;;;;4971813;28;20030;-71
2022/09/27 10:20:37;;;;;;;0.65;0.10;;;10.90;99.90;;;;;;4969208;28;20059;-72
2022/09/27 10:23:12;;;;;;;2.33;0.30;;;11.00;99.90;;;;;;4970816;28;20054;-72
2022/09/27 10:25:51;;;;;;;3.28;0.20;;;11.00;99.90;;;;;;4971805;28;20031;-71
2022/09/27 10:28:32;;;;;;;3.25;0.10;;;10.90;99.90;;;;;;4965627;28;20138;-70
2022/09/27 10:31:06;;;;;;;2.30;0.30;;;10.80;99.90;;;;;;4970115;28;20569;-70
2022/09/27 10:33:33;;;;;;;2.30;0.15;;;10.70;99.90;;;;;;4972086;28;20043;-71
2022/09/27 10:36:00;;;;;;;2.72;0.30;;;10.70;99.90;;;;;;4970739;28;20514;-71
2022/09/27 10:38:34;;;;;;;4.25;0.30;;;10.60;99.90;;;;;;4970312;28;20077;-70
2022/09/27 10:41:22;;;;;;;5.57;0.32;;;10.50;99.90;;;;;;4967523;28;20054;-74
2022/09/27 10:43:48;;;;;;;0.88;0.10;;;10.50;99.90;;;;;;4970308;28;20122;-69
2022/09/27 10:46:32;;;;;;;6.05;1.25;;;10.60;99.90;;;;;;4971058;28;20118;-68
2022/09/27 10:49:26;;;;;;;2.25;0.45;;;10.60;99.90;;;;;;4965616;28;20387;-71
2022/09/27 10:51:56;;;;;;;3.50;0.30;;;10.50;99.90;;;;;;4967381;28;20122;-71
2022/09/27 10:54:28;;;;;;;2.35;0.32;;;10.50;99.90;;;;;;4969611;28;20403;-69
2022/09/27 10:57:00;;;;;;;0.98;0.13;;;10.50;99.90;;;;;;4970431;28;21037;-72
2022/09/27 10:59:29;;;;;;;3.85;0.40;;;10.40;99.90;;;;;;4973117;28;20125;-70
2022/09/27 11:01:55;;;;;;;2.47;0.10;;;10.40;99.90;;;;;;4973788;28;20114;-71
2022/09/27 11:04:33;;;;;;;1.48;0.20;;;10.40;99.90;;;;;;4982642;28;20142;-71
2022/09/27 11:07:11;;;;;;;2.38;0.10;;;10.40;99.90;;;;;;4976289;28;20022;-70
2022/09/27 11:09:55;;;;;;;0.75;0.20;;;10.40;99.90;;;;;;4971274;28;20035;-70
2022/09/27 11:12:21;;;;;;;1.08;0.20;;;10.30;99.90;;;;;;4970791;28;20035;-71
2022/09/27 11:15:13;;;;;;;2.33;0.28;;;10.40;99.90;;;;;;4979248;28;20468;-71
2022/09/27 11:17:53;;;;;;;1.17;0.40;;;10.30;99.90;;;;;;4976288;28;20270;-71
2022/09/27 11:20:38;;;;;;;2.40;0.10;;;10.40;99.90;;;;;;4972358;28;20051;-70
2022/09/27 11:23:03;;;;;;;3.47;0.10;;;10.40;99.90;;;;;;4979682;28;20101;-72
2022/09/27 11:25:45;;;;;;;3.45;0.20;;;10.30;99.90;;;;;;4971363;28;20042;-72
2022/09/27 11:28:40;;;;;;;2.75;0.30;;;10.30;99.90;;;;;;4977427;28;20100;-71
2022/09/27 11:31:30;;;;;;;3.10;0.55;;;10.20;99.90;;;;;;4980137;28;20047;-71
2022/09/27 11:34:37;;;;;;;0.90;0.65;;;10.10;99.90;;;;;;4977057;28;20026;-71
2022/09/27 11:37:11;;;;;;;2.47;0.10;;;10.20;99.90;;;;;;4960235;28;20511;-72
2022/09/27 11:40:08;;;;;;;3.20;0.20;;;10.10;99.90;;;;;;4969455;28;20043;-71
2022/09/27 11:43:15;;;;;;;1.15;0.20;;;10.10;99.90;;;;;;4973782;28;20057;-70
2022/09/27 11:46:16;;;;;;;2.90;0.17;;;10.10;99.90;;;;;;4973164;28;20035;-71
2022/09/27 11:48:48;;;;;;;;;;;10.00;99.90;;;;;;4968563;28;20050;-71
2022/09/27 11:51:23;;;;;;;2.38;0.40;;;9.90;99.90;;;;;;4974672;28;19921;-71
2022/09/27 11:54:23;;;;;;;4.57;0.28;;;9.90;99.90;;;;;;4972270;28;20044;-71
2022/09/27 11:57:15;;;;;;;0.98;0.10;;;9.90;99.90;;;;;;4976725;28;20051;-69
2022/09/27 12:00:16;;;;;;;4.95;0.30;;;9.90;99.90;;;;;;4978302;28;20783;-71
2022/09/27 12:03:00;;;;;;;1.65;0.32;;;9.80;99.90;;;;;;4974228;28;20046;-72
2022/09/27 12:05:41;;;;;;;1.45;0.40;;;9.70;99.90;;;;;;4974149;28;20426;-72
2022/09/27 12:08:35;;;;;;;3.35;0.73;;;9.70;99.90;;;;;;4975716;28;20053;-72
2022/09/27 12:11:24;;;;;;;3.20;0.80;;;9.70;99.90;;;;;;4972463;28;20038;-74
2022/09/27 12:14:02;;;;;;;3.22;0.38;;;9.70;99.90;;;;;;4970210;28;20034;-71
2022/09/27 12:16:30;;;;;;;3.60;0.80;;;9.70;99.90;;;;;;4979641;28;20039;-71
2022/09/27 12:18:58;;;;;;;2.58;0.40;;;9.70;99.90;;;;;;4973703;28;20042;-70
2022/09/27 12:21:25;;;;;;;4.85;0.50;;;9.70;99.90;;;;;;4975871;28;20647;-70
2022/09/27 12:23:56;;;;;;;3.25;0.22;;;9.70;99.90;;;;;;4975936;28;20807;-71
2022/09/27 12:26:41;;;;;;;2.60;0.63;;;9.80;99.90;;;;;;4975633;28;20038;-71
2022/09/27 12:29:33;;;;;;;1.33;0.15;;;9.80;99.90;;;;;;4970174;28;20070;-71
2022/09/27 12:32:24;;;;;;;3.20;0.40;;;9.80;99.90;;;;;;4970578;28;20085;-71
2022/09/27 12:35:26;;;;;;;3.72;1.17;;;9.90;99.90;;;;;;4969374;28;20467;-72
2022/09/27 12:38:14;;;;;;;4.50;0.40;;;10.00;99.90;;;;;;4966819;28;20034;-71
2022/09/27 12:40:46;;;;;;;1.33;0.40;;;10.10;99.90;;;;;;4975865;28;20043;-71
2022/09/27 12:43:24;;;;;;;0.70;0.20;;;10.20;99.90;;;;;;4976419;28;20509;-72
2022/09/27 12:46:25;;;;;;;1.60;0.40;;;10.30;99.90;;;;;;4969202;28;20035;-71
2022/09/27 12:49:05;;;;;;;2.83;0.43;;;10.30;99.90;;;;;;4967725;28;20072;-71
2022/09/27 12:51:36;;;;;;;0.95;0.10;;;10.40;99.90;;;;;;4972883;28;20046;-71
2022/09/27 12:54:11;;;;;;;1.95;0.30;;;10.50;99.90;;;;;;4975155;28;20067;-72
2022/09/27 12:56:57;;;;;;;5.40;0.75;;;10.60;99.90;;;;;;4975437;28;20057;-71
2022/09/27 13:00:02;;;;;;;1.33;0.10;;;10.70;99.90;;;;;;4971050;28;20109;-71
2022/09/27 13:03:06;;;;;;;0.65;0.10;;;10.80;99.90;;;;;;4967681;28;20080;-71
2022/09/27 13:05:43;;;;;;;1.65;0.25;;;10.80;99.90;;;;;;4974096;28;20035;-73
2022/09/27 13:08:24;;;;;;;1.45;0.08;;;10.90;99.90;;;;;;4977321;28;20041;-72
2022/09/27 13:10:54;;;;;;;;;;;10.90;99.90;;;;;;4971660;28;20121;-72
2022/09/27 13:13:25;;;;;;;0.32;0.10;;;10.90;99.90;;;;;;4970404;28;20442;-72
2022/09/27 13:16:01;;;;;;;2.33;0.20;;;11.00;99.90;;;;;;4971185;28;20105;-71
2022/09/27 13:18:35;;;;;;;3.03;0.20;;;11.10;99.90;;;;;;4977508;28;20115;-71
2022/09/27 13:21:08;;;;;;;0.77;0.10;;;11.20;99.90;;;;;;4974507;28;20514;-73
2022/09/27 13:23:34;;;;;;;1.50;0.05;;;11.20;99.90;;;;;;4970696;28;20625;-71
2022/09/27 13:26:21;;;;;;;0.90;0.10;;;11.40;99.90;;;;;;4976835;28;20046;-71
2022/09/27 13:28:46;;;;;;;1.00;0.20;;;11.50;99.90;;;;;;4975056;28;20542;-71
2022/09/27 13:31:16;;;;;;;0.32;0.10;;;11.50;99.90;;;;;;4970897;28;20165;-71
2022/09/27 13:33:42;;;;;;;0.90;0.17;;;11.40;99.90;;;;;;4972219;28;20035;-71